Time,TemperatureF,DewpointF,PressureIn,WindDirection,WindDirectionDegrees,WindSpeedMPH,WindSpeedGustMPH,Humidity,HourlyPrecipIn,Conditions,Clouds,dailyrainin,SoftwareType,DateUTC
2013-05-04 00:02:00,56.0,28.0,30.32,SSE,157,6.0,12.0,34,0.00,,,0.00,,2013-05-04 04:02:00,
2013-05-04 00:12:00,56.0,28.0,30.32,SSE,157,6.0,12.0,34,0.00,,,0.00,,2013-05-04 04:12:00,
2013-05-04 00:22:00,55.0,26.0,30.33,South,171,4.0,14.0,33,0.00,,,0.00,,2013-05-04 04:22:00,
2013-05-04 00:33:00,55.0,26.0,30.33,SE,142,4.0,11.0,33,0.00,,,0.00,,2013-05-04 04:33:00,
2013-05-04 00:42:00,55.0,26.0,30.33,SE,142,4.0,11.0,33,0.00,,,0.00,,2013-05-04 04:42:00,
2013-05-04 00:52:00,54.0,26.0,30.33,SSE,155,5.0,11.0,34,0.00,,,0.00,,2013-05-04 04:52:00,
2013-05-04 01:02:00,54.0,27.0,30.33,SSE,150,4.0,8.0,35,0.00,,,0.00,,2013-05-04 05:02:00,
2013-05-04 01:12:00,53.0,26.0,30.33,South,169,4.0,10.0,35,0.00,,,0.00,,2013-05-04 05:12:00,
2013-05-04 01:22:00,53.0,26.0,30.33,South,169,4.0,10.0,35,0.00,,,0.00,,2013-05-04 05:22:00,
2013-05-04 01:32:00,53.0,27.0,30.33,SSE,150,5.0,10.0,36,0.00,,,0.00,,2013-05-04 05:32:00,
2013-05-04 01:43:00,53.0,27.0,30.33,SSE,150,5.0,10.0,36,0.00,,,0.00,,2013-05-04 05:43:00,
2013-05-04 01:52:00,52.0,27.0,30.32,SSE,157,4.0,11.0,37,0.00,,,0.00,,2013-05-04 05:52:00,
2013-05-04 02:01:00,52.0,27.0,30.32,SSE,166,4.0,12.0,37,0.00,,,0.00,,2013-05-04 06:01:00,
2013-05-04 02:11:00,51.0,26.0,30.32,SSE,161,4.0,9.0,38,0.00,,,0.00,,2013-05-04 06:11:00,
2013-05-04 02:21:00,51.0,26.0,30.32,SSE,161,4.0,9.0,38,0.00,,,0.00,,2013-05-04 06:21:00,
2013-05-04 02:32:00,51.0,26.0,30.32,SSE,163,6.0,10.0,38,0.00,,,0.00,,2013-05-04 06:32:00,
2013-05-04 02:42:00,51.0,26.0,30.32,SSE,163,6.0,10.0,38,0.00,,,0.00,,2013-05-04 06:42:00,
2013-05-04 02:52:00,51.0,26.0,30.32,South,171,4.0,10.0,38,0.00,,,0.00,,2013-05-04 06:52:00,
2013-05-04 03:01:00,51.0,26.0,30.32,South,173,3.0,9.0,38,0.00,,,0.00,,2013-05-04 07:01:00,
2013-05-04 03:11:00,51.0,26.0,30.32,South,173,3.0,9.0,38,0.00,,,0.00,,2013-05-04 07:11:00,
2013-05-04 03:21:00,50.0,26.0,30.32,SSE,164,3.0,8.0,39,0.00,,,0.00,,2013-05-04 07:21:00,
2013-05-04 03:32:00,50.0,27.0,30.32,South,175,3.0,8.0,40,0.00,,,0.00,,2013-05-04 07:32:00,
2013-05-04 03:42:00,50.0,27.0,30.32,South,175,3.0,8.0,40,0.00,,,0.00,,2013-05-04 07:42:00,
2013-05-04 03:52:00,50.0,27.0,30.30,SSW,213,4.0,7.0,40,0.00,,,0.00,,2013-05-04 07:52:00,
2013-05-04 04:01:00,49.0,26.0,30.30,South,184,3.0,9.0,41,0.00,,,0.00,,2013-05-04 08:01:00,
2013-05-04 04:11:00,49.0,26.0,30.30,South,184,3.0,9.0,41,0.00,,,0.00,,2013-05-04 08:11:00,
2013-05-04 04:21:00,49.0,26.0,30.32,SSE,157,4.0,9.0,41,0.00,,,0.00,,2013-05-04 08:21:00,
2013-05-04 04:32:00,48.0,26.0,30.32,South,184,2.0,5.0,42,0.00,,,0.00,,2013-05-04 08:32:00,
2013-05-04 04:42:00,48.0,26.0,30.32,South,184,2.0,5.0,42,0.00,,,0.00,,2013-05-04 08:42:00,
2013-05-04 04:52:00,47.0,27.0,30.32,SE,135,0.0,5.0,45,0.00,,,0.00,,2013-05-04 08:52:00,
2013-05-04 05:02:00,46.0,27.0,30.32,SE,143,1.0,5.0,48,0.00,,,0.00,,2013-05-04 09:02:00,
2013-05-04 05:11:00,46.0,27.0,30.32,SE,143,1.0,5.0,48,0.00,,,0.00,,2013-05-04 09:11:00,
2013-05-04 05:22:00,45.0,27.0,30.31,East,81,3.0,3.0,48,0.00,,,0.00,,2013-05-04 09:22:00,
2013-05-04 05:32:00,45.0,27.0,30.32,ESE,120,2.0,4.0,50,0.00,,,0.00,,2013-05-04 09:32:00,
2013-05-04 05:42:00,45.0,27.0,30.32,ESE,120,2.0,4.0,50,0.00,,,0.00,,2013-05-04 09:42:00,
2013-05-04 05:53:00,44.0,27.0,30.32,SSE,148,2.0,3.0,51,0.00,,,0.00,,2013-05-04 09:53:00,
2013-05-04 06:03:00,44.0,28.0,30.31,ESE,110,1.0,4.0,52,0.00,,,0.00,,2013-05-04 10:03:00,
2013-05-04 06:12:00,44.0,28.0,30.31,ESE,110,1.0,4.0,52,0.00,,,0.00,,2013-05-04 10:12:00,
2013-05-04 06:23:00,43.0,27.0,30.32,ENE,67,2.0,4.0,53,0.00,,,0.00,,2013-05-04 10:23:00,
2013-05-04 06:33:00,43.0,28.0,30.32,East,90,0.0,0.0,55,0.00,,,0.00,,2013-05-04 10:33:00,
2013-05-04 06:42:00,43.0,28.0,30.32,East,90,0.0,0.0,55,0.00,,,0.00,,2013-05-04 10:42:00,
2013-05-04 06:53:00,43.0,28.0,30.32,East,90,0.0,0.0,56,0.00,,,0.00,,2013-05-04 10:53:00,
2013-05-04 07:02:00,43.0,29.0,30.33,ENE,67,0.0,0.0,57,0.00,,,0.00,,2013-05-04 11:02:00,
2013-05-04 07:11:00,43.0,29.0,30.33,ENE,67,0.0,0.0,57,0.00,,,0.00,,2013-05-04 11:11:00,
2013-05-04 07:21:00,43.0,28.0,30.32,SE,135,0.0,0.0,56,0.00,,,0.00,,2013-05-04 11:21:00,
2013-05-04 07:32:00,45.0,30.0,30.32,South,171,3.0,5.0,55,0.00,,,0.00,,2013-05-04 11:32:00,
2013-05-04 07:44:00,45.0,30.0,30.32,South,171,3.0,5.0,55,0.00,,,0.00,,2013-05-04 11:44:00,
2013-05-04 07:56:00,46.0,30.0,30.32,SE,141,2.0,4.0,54,0.00,,,0.00,,2013-05-04 11:56:00,
2013-05-04 08:07:00,48.0,31.0,30.32,SSE,157,1.0,4.0,52,0.00,,,0.00,,2013-05-04 12:07:00,
2013-05-04 08:14:00,48.0,31.0,30.32,SSE,157,1.0,4.0,52,0.00,,,0.00,,2013-05-04 12:14:00,
2013-05-04 08:37:00,52.0,33.0,30.33,South,185,2.0,4.0,49,0.00,,,0.00,,2013-05-04 12:37:00,
2013-05-04 08:42:00,52.0,33.0,30.33,South,185,2.0,4.0,49,0.00,,,0.00,,2013-05-04 12:42:00,
2013-05-04 08:52:00,54.0,34.0,30.33,SE,145,2.0,5.0,47,0.00,,,0.00,,2013-05-04 12:52:00,
2013-05-04 09:01:00,56.0,36.0,30.34,South,186,3.0,5.0,46,0.00,,,0.00,,2013-05-04 13:01:00,
2013-05-04 09:32:00,59.0,37.0,30.34,SSW,209,2.0,5.0,44,0.00,,,0.00,,2013-05-04 13:32:00,
2013-05-04 09:42:00,59.0,37.0,30.34,SSW,209,2.0,5.0,44,0.00,,,0.00,,2013-05-04 13:42:00,
2013-05-04 09:52:00,61.0,38.0,30.34,SSE,154,2.0,5.0,43,0.00,,,0.00,,2013-05-04 13:52:00,
2013-05-04 10:02:00,62.0,38.0,30.34,WSW,244,2.0,4.0,41,0.00,,,0.00,,2013-05-04 14:02:00,
2013-05-04 10:11:00,62.0,38.0,30.34,WSW,244,2.0,4.0,41,0.00,,,0.00,,2013-05-04 14:11:00,
2013-05-04 10:21:00,62.0,37.0,30.34,WSW,251,4.0,5.0,40,0.00,,,0.00,,2013-05-04 14:21:00,
2013-05-04 10:32:00,63.0,38.0,30.33,SE,146,3.0,9.0,40,0.02,,,0.02,,2013-05-04 14:32:00,
2013-05-04 10:42:00,63.0,38.0,30.33,SE,146,3.0,9.0,40,0.02,,,0.02,,2013-05-04 14:42:00,
2013-05-04 10:51:00,64.0,38.0,30.33,SSE,168,2.0,7.0,38,0.02,,,0.02,,2013-05-04 14:51:00,
2013-05-04 11:02:00,65.0,39.0,30.32,SSE,168,4.0,8.0,38,0.02,,,0.02,,2013-05-04 15:02:00,
2013-05-04 11:12:00,65.0,39.0,30.32,SSE,168,4.0,8.0,38,0.02,,,0.02,,2013-05-04 15:12:00,
2013-05-04 11:22:00,66.0,39.0,30.32,South,173,2.0,10.0,37,0.02,,,0.02,,2013-05-04 15:22:00,
2013-05-04 11:33:00,67.0,39.0,30.32,South,174,5.0,10.0,36,0.00,,,0.02,,2013-05-04 15:33:00,
2013-05-04 11:43:00,67.0,39.0,30.32,South,174,5.0,10.0,36,0.00,,,0.02,,2013-05-04 15:43:00,
2013-05-04 11:53:00,67.0,38.0,30.32,South,179,3.0,9.0,35,0.00,,,0.02,,2013-05-04 15:53:00,
2013-05-04 12:03:00,68.0,39.0,30.32,SW,218,4.0,9.0,34,0.00,,,0.02,,2013-05-04 16:03:00,
2013-05-04 12:12:00,68.0,39.0,30.32,SW,218,4.0,9.0,34,0.00,,,0.02,,2013-05-04 16:12:00,
2013-05-04 12:22:00,69.0,39.0,30.31,WSW,240,4.0,10.0,34,0.00,,,0.02,,2013-05-04 16:22:00,
2013-05-04 12:33:00,69.0,39.0,30.30,WSW,242,5.0,7.0,33,0.00,,,0.02,,2013-05-04 16:33:00,
2013-05-04 12:42:00,69.0,39.0,30.30,WSW,242,5.0,7.0,33,0.00,,,0.02,,2013-05-04 16:42:00,
2013-05-04 12:52:00,70.0,40.0,30.30,SSW,201,3.0,7.0,34,0.00,,,0.02,,2013-05-04 16:52:00,
2013-05-04 13:02:00,71.0,39.0,30.30,WSW,248,4.0,7.0,31,0.00,,,0.02,,2013-05-04 17:02:00,
2013-05-04 13:12:00,71.0,39.0,30.30,WSW,248,4.0,7.0,31,0.00,,,0.02,,2013-05-04 17:12:00,
2013-05-04 13:22:00,71.0,40.0,30.30,WSW,246,2.0,7.0,32,0.00,,,0.02,,2013-05-04 17:22:00,
2013-05-04 13:32:00,71.0,38.0,30.29,WSW,239,3.0,7.0,30,0.00,,,0.02,,2013-05-04 17:32:00,
2013-05-04 13:42:00,71.0,38.0,30.29,WSW,239,3.0,7.0,30,0.00,,,0.02,,2013-05-04 17:42:00,
2013-05-04 13:52:00,72.0,39.0,30.29,West,272,3.0,5.0,30,0.00,,,0.02,,2013-05-04 17:52:00,
2013-05-04 14:01:00,72.0,38.0,30.28,WNW,303,2.0,5.0,29,0.00,,,0.02,,2013-05-04 18:01:00,
2013-05-04 14:12:00,72.0,38.0,30.28,WNW,303,2.0,5.0,29,0.00,,,0.02,,2013-05-04 18:12:00,
2013-05-04 14:22:00,73.0,38.0,30.28,East,89,2.0,6.0,28,0.00,,,0.02,,2013-05-04 18:22:00,
2013-05-04 14:32:00,73.0,38.0,30.27,East,80,3.0,6.0,28,0.00,,,0.02,,2013-05-04 18:32:00,
2013-05-04 14:42:00,73.0,38.0,30.27,East,80,3.0,6.0,28,0.00,,,0.02,,2013-05-04 18:42:00,
2013-05-04 14:52:00,73.0,37.0,30.26,NE,43,1.0,6.0,27,0.00,,,0.02,,2013-05-04 18:52:00,
2013-05-04 15:01:00,74.0,38.0,30.26,NE,36,2.0,5.0,27,0.00,,,0.02,,2013-05-04 19:01:00,
2013-05-04 15:11:00,74.0,38.0,30.26,NE,36,2.0,5.0,27,0.00,,,0.02,,2013-05-04 19:11:00,
2013-05-04 15:21:00,73.0,36.0,30.25,ENE,72,5.0,9.0,26,0.00,,,0.02,,2013-05-04 19:21:00,
2013-05-04 15:32:00,73.0,37.0,30.24,SSE,166,3.0,6.0,27,0.00,,,0.02,,2013-05-04 19:32:00,
2013-05-04 15:42:00,73.0,37.0,30.24,SSE,166,3.0,6.0,27,0.00,,,0.02,,2013-05-04 19:42:00,
2013-05-04 15:52:00,75.0,36.0,30.24,NE,42,2.0,4.0,24,0.00,,,0.02,,2013-05-04 19:52:00,
2013-05-04 16:02:00,75.0,39.0,30.24,East,88,2.0,7.0,27,0.00,,,0.02,,2013-05-04 20:02:00,
2013-05-04 16:11:00,75.0,39.0,30.24,East,88,2.0,7.0,27,0.00,,,0.02,,2013-05-04 20:11:00,
2013-05-04 16:22:00,75.0,38.0,30.23,SW,234,4.0,6.0,26,0.00,,,0.02,,2013-05-04 20:22:00,
2013-05-04 16:32:00,78.0,35.0,30.23,West,280,3.0,6.0,21,0.00,,,0.02,,2013-05-04 20:32:00,
2013-05-04 16:42:00,78.0,35.0,30.23,West,280,3.0,6.0,21,0.00,,,0.02,,2013-05-04 20:42:00,
2013-05-04 16:52:00,79.0,36.0,30.22,East,92,3.0,5.0,21,0.00,,,0.02,,2013-05-04 20:52:00,
2013-05-04 17:02:00,78.0,34.0,30.22,NNW,328,2.0,6.0,20,0.00,,,0.02,,2013-05-04 21:02:00,
2013-05-04 17:12:00,78.0,34.0,30.22,NNW,328,2.0,6.0,20,0.00,,,0.02,,2013-05-04 21:12:00,
2013-05-04 17:22:00,78.0,32.0,30.22,SW,222,2.0,3.0,19,0.00,,,0.02,,2013-05-04 21:22:00,
2013-05-04 17:33:00,78.0,34.0,30.21,South,189,3.0,7.0,20,0.00,,,0.02,,2013-05-04 21:33:00,
2013-05-04 17:43:00,78.0,34.0,30.21,South,189,3.0,7.0,20,0.00,,,0.02,,2013-05-04 21:43:00,
2013-05-04 17:53:00,78.0,35.0,30.20,South,173,4.0,9.0,21,0.00,,,0.02,,2013-05-04 21:53:00,
2013-05-04 18:03:00,77.0,34.0,30.19,SE,130,3.0,5.0,21,0.00,,,0.02,,2013-05-04 22:03:00,
2013-05-04 18:12:00,77.0,34.0,30.19,SE,130,3.0,5.0,21,0.00,,,0.02,,2013-05-04 22:12:00,
2013-05-04 18:22:00,77.0,33.0,30.19,NE,45,1.0,6.0,20,0.00,,,0.02,,2013-05-04 22:22:00,
2013-05-04 18:33:00,78.0,35.0,30.19,South,190,3.0,5.0,21,0.00,,,0.02,,2013-05-04 22:33:00,
2013-05-04 18:42:00,77.0,33.0,30.19,SSW,202,0.0,4.0,20,0.00,,,0.02,,2013-05-04 22:42:00,
2013-05-04 18:52:00,77.0,33.0,30.19,SSW,202,0.0,4.0,20,0.00,,,0.02,,2013-05-04 22:52:00,
2013-05-04 19:02:00,74.0,32.0,30.19,East,98,2.0,4.0,21,0.00,,,0.02,,2013-05-04 23:02:00,
2013-05-04 19:12:00,74.0,32.0,30.19,East,98,2.0,4.0,21,0.00,,,0.02,,2013-05-04 23:12:00,
2013-05-04 19:22:00,71.0,31.0,30.19,SSE,147,3.0,4.0,23,0.00,,,0.02,,2013-05-04 23:22:00,
2013-05-04 19:32:00,70.0,33.0,30.19,ENE,64,4.0,8.0,25,0.00,,,0.02,,2013-05-04 23:32:00,
2013-05-04 19:42:00,70.0,33.0,30.19,ENE,64,4.0,8.0,25,0.00,,,0.02,,2013-05-04 23:42:00,
2013-05-04 19:52:00,69.0,34.0,30.19,ENE,64,3.0,5.0,27,0.00,,,0.02,,2013-05-04 23:52:00,
2013-05-04 20:02:00,67.0,33.0,30.19,ENE,67,2.0,4.0,28,0.00,,,0.02,,2013-05-05 00:02:00,
2013-05-04 20:11:00,67.0,33.0,30.19,ENE,67,2.0,4.0,28,0.00,,,0.02,,2013-05-05 00:11:00,
2013-05-04 20:21:00,65.0,36.0,30.19,ENE,67,2.0,4.0,34,0.00,,,0.02,,2013-05-05 00:21:00,
2013-05-04 20:32:00,63.0,36.0,30.19,ENE,68,2.0,5.0,36,0.00,,,0.02,,2013-05-05 00:32:00,
2013-05-04 20:42:00,63.0,36.0,30.19,ENE,68,2.0,5.0,36,0.00,,,0.02,,2013-05-05 00:42:00,
2013-05-04 20:52:00,61.0,35.0,30.19,ENE,67,1.0,4.0,38,0.00,,,0.02,,2013-05-05 00:52:00,
2013-05-04 21:01:00,59.0,35.0,30.19,ENE,67,2.0,3.0,41,0.00,,,0.02,,2013-05-05 01:01:00,
2013-05-04 21:11:00,59.0,35.0,30.20,ENE,67,2.0,3.0,40,0.00,,,0.02,,2013-05-05 01:11:00,
2013-05-04 21:21:00,59.0,35.0,30.20,ENE,67,2.0,3.0,40,0.00,,,0.02,,2013-05-05 01:21:00,
2013-05-04 21:32:00,58.0,34.0,30.21,ENE,67,0.0,0.0,41,0.00,,,0.02,,2013-05-05 01:32:00,
2013-05-04 21:42:00,58.0,34.0,30.21,ENE,67,0.0,0.0,41,0.00,,,0.02,,2013-05-05 01:42:00,
2013-05-04 21:52:00,57.0,36.0,30.21,ENE,67,1.0,2.0,45,0.00,,,0.02,,2013-05-05 01:52:00,
2013-05-04 22:02:00,54.0,35.0,30.21,ENE,63,4.0,5.0,49,0.00,,,0.02,,2013-05-05 02:02:00,
2013-05-04 22:11:00,54.0,35.0,30.21,ENE,63,4.0,5.0,49,0.00,,,0.02,,2013-05-05 02:11:00,
2013-05-04 22:22:00,53.0,36.0,30.21,ENE,67,4.0,5.0,52,0.00,,,0.02,,2013-05-05 02:22:00,
2013-05-04 22:32:00,52.0,35.0,30.22,ENE,67,0.0,3.0,52,0.00,,,0.02,,2013-05-05 02:32:00,
2013-05-04 22:42:00,52.0,35.0,30.22,ENE,67,0.0,3.0,52,0.00,,,0.02,,2013-05-05 02:42:00,
2013-05-04 22:52:00,53.0,35.0,30.22,SE,135,0.0,0.0,51,0.00,,,0.02,,2013-05-05 02:52:00,
2013-05-04 23:01:00,52.0,36.0,30.22,ESE,112,0.0,0.0,54,0.00,,,0.02,,2013-05-05 03:01:00,
2013-05-04 23:11:00,51.0,36.0,30.22,ESE,112,0.0,0.0,56,0.00,,,0.02,,2013-05-05 03:11:00,
2013-05-04 23:22:00,51.0,36.0,30.22,ESE,112,0.0,0.0,56,0.00,,,0.02,,2013-05-05 03:22:00,
2013-05-04 23:33:00,51.0,37.0,30.22,ENE,67,0.0,2.0,58,0.00,,,0.02,,2013-05-05 03:33:00,
2013-05-04 23:42:00,51.0,37.0,30.22,ENE,67,0.0,2.0,58,0.00,,,0.02,,2013-05-05 03:42:00,
2013-05-04 23:53:00,51.0,37.0,30.21,ENE,67,1.0,4.0,58,0.00,,,0.02,,2013-05-05 03:53:00,